Mason Valley Wildlife Refuge, Nevada Weather observations

Data are for 10 minute period ending at time listed.
 Day   Time   Solar   Ave.   Ave.  Ave.  Vector  Max.   Baro.   Total    
  of    of     Rad.   Air    Rel.  Wind   Wind   Wind  Press.  Precip.   
Year   Day            Temp.  Hum.  Speed  Dir.   Gust                    
2015   (PST)  Kw/m2    F      %     mph   deg.    mph    mb.     in.     
-------------------------------------------------------------------------
  56   15:50   0.42   59.8    14    6.1    40     9.9   871.7    0.00 
  56   16:00   0.38   59.4    14    7.7    50    11.3   871.6    0.00 
  56   16:10   0.33   59.2    14    6.3    59    10.4   871.6    0.00 
  56   16:20   0.28   59.0    14    6.6    53     9.4   871.6    0.00 
  56   16:30   0.23   58.7    15    6.4    46     9.4   871.5    0.00 
  56   16:40   0.23   58.4    14    7.3    36    11.5   871.5    0.00 
  56   16:50   0.20   57.8    15    7.4    52    10.2   871.5    0.00 
  56   17:00   0.16   57.0    17    7.1    48    10.0   871.4    0.00 
  56   17:10   0.13   56.3    18    6.3    45     8.6   871.5    0.00 
  56   17:20   0.10   55.7    18    4.2    46     5.9   871.5    0.00 
  56   17:30   0.04   54.7    17    5.4    40     8.3   871.4    0.00 
  56   17:40   0.01   52.5    18    4.0    37     5.8   871.4    0.00 
  56   17:50   0.01   51.8    20    2.8    77     4.0   871.3    0.00 
  56   18:00   0.00   51.4    20    2.9    79     3.9   871.3    0.00 
  56   18:10   0.00   50.3    19    2.6    95     4.0   871.2    0.00 
  56   18:20   0.00   47.4    21    1.3    56     3.0   871.3    0.00 
  56   18:30   0.00   47.7    21    0.8   254     1.4   871.2    0.00 
  56   18:40   0.00   48.0    21    1.6   250     3.1   871.0    0.00 
  56   18:50   0.00   46.1    22    2.1   284     3.1   871.0    0.00 
  56   19:00   0.00   43.1    25    2.1   212     3.3   871.0    0.00 
  56   19:10   0.00   44.2    24    1.6   190     2.8   870.8    0.00 
  56   19:20   0.00   44.7    23    0.5   130     1.7   870.8    0.00 
  56   19:30   0.00   41.9    26    1.1   224     2.2   870.8    0.00 
  56   19:40   0.00   42.2    26    0.2   217     1.5   870.8    0.00 
  56   19:50   0.00   41.0    27    0.6   136     1.6   870.5    0.00 
  56   20:00   0.00   40.9    27    0.7    64     1.5   870.5    0.00 
  56   20:10   0.00   39.8    28    0.1   324     1.4   870.5    0.00 
  56   20:20   0.00   38.7    29    1.4   280     2.1   870.2    0.00 
  56   20:30   0.00   35.7    31    0.6   328     2.1   870.4    0.00 
  56   20:40   0.00   33.9    33    1.4   326     2.1   870.6    0.00 
  56   20:50   0.00   34.1    34    0.7   264     3.1   870.4    0.00 
  56   21:00   0.00   34.4    34    2.7   202     3.3   870.3    0.00 
  56   21:10   0.00   36.9    32    0.8   224     2.4   870.2    0.00 
  56   21:20   0.00   35.6    32    0.0     0     0.0   870.3    0.00 
  56   21:30   0.00   35.5    34    0.3   225     0.7   870.2    0.00 
  56   21:40   0.00   33.0    37    3.0   227     5.2   870.1    0.00 
  56   21:50   0.00   32.0    37    0.9   168     2.6   870.1    0.00 
  56   22:00   0.00   32.4    35    1.8   170     2.4   870.1    0.00 
  56   22:10   0.00   33.6    33    3.1   165     4.5   870.1    0.00 
  56   22:20   0.00   33.7    33    1.8   157     2.8   870.1    0.00 
  56   22:30   0.00   32.9    34    1.9   182     4.2   870.1    0.00 
  56   22:40   0.00   30.8    37    2.1   146     2.9   870.1    0.00 
  56   22:50   0.00   28.6    37    2.5   154     4.0   869.9    0.00 
  56   23:00   0.00   27.5    40    2.0   190     3.1   869.7    0.00 
  56   23:10   0.00   27.4    39    1.7   142     3.3   869.6    0.00 
  56   23:20   0.00   26.3    39    0.9   130     3.3   869.6    0.00 
  56   23:30   0.00   25.3    40    1.3    59     2.9   869.3    0.00 
  56   23:40   0.00   24.9    43    1.6   346     5.0   869.4    0.00 
  56   23:50   0.00   25.6    44    2.7    21     4.3   869.3    0.00 
  57    0:00   0.00   27.3    48    3.1   350     4.5   869.5    0.00 
  57    0:10   0.00   28.8    47    3.6     2     5.6   869.5    0.00 
  57    0:20   0.00   27.6    50    1.8    28     2.9   869.4    0.00 
  57    0:30   0.00   28.7    51    1.7   338     6.6   869.2    0.00 
  57    0:40   0.00   26.5    49    3.3   223     6.4   869.0    0.00 
  57    0:50   0.00   26.1    51    2.7   242     5.0   869.0    0.00 
  57    1:00   0.00   26.0    52    1.1    18     3.7   869.0    0.00 
  57    1:10   0.00   25.6    55    2.1   248     4.2   868.9    0.00 
  57    1:20   0.00   25.4    57    3.6   195     4.5   868.8    0.00 
  57    1:30   0.00   25.7    54    2.3   166     3.7   868.8    0.00 
  57    1:40   0.00   24.2    53    1.0   138     2.3   868.9    0.00 
  57    1:50   0.00   24.4    51    1.8   195     4.2   869.0    0.00 
  57    2:00   0.00   23.0    48    2.3   109     4.6   869.0    0.00 
  57    2:10   0.00   23.3    51    2.7   123     3.8   868.8    0.00 
  57    2:20   0.00   23.5    50    2.4   140     4.4   868.7    0.00 
  57    2:30   0.00   22.9    52    2.2    94     3.6   868.7    0.00 
  57    2:40   0.00   24.4    53    3.0   116     4.8   868.4    0.00 
  57    2:50   0.00   25.3    51    2.2   153     3.1   868.4    0.00 
  57    3:00   0.00   25.1    52    3.3   229     4.5   868.5    0.00 
  57    3:10   0.00   25.4    50    3.3     4     7.5   868.6    0.00 
  57    3:20   0.00   25.0    52    2.2   324     5.8   868.5    0.00 
  57    3:30   0.00   26.1    50    2.8   252     3.4   868.5    0.00 
  57    3:40   0.00   26.6    48    1.6    51     7.7   868.7    0.00 
  57    3:50   0.00   26.7    47    1.0   106     2.6   868.7    0.00 
  57    4:00   0.00   25.5    49    2.3   163     4.1   868.6    0.00 
  57    4:10   0.00   25.4    49    3.9   155     6.1   868.5    0.00 
  57    4:20   0.00   25.5    48    3.0   141     4.4   868.5    0.00 
  57    4:30   0.00   25.3    50    4.0   127     6.1   868.5    0.00 
  57    4:40   0.00   26.4    48    3.4   124     6.1   868.5    0.00 
  57    4:50   0.00   26.1    48    2.0   208     4.0   868.6    0.00 
  57    5:00   0.00   25.4    49    2.0   285     7.0   868.7    0.00 
  57    5:10   0.00   24.8    50    1.3   202     3.9   868.6    0.00 
  57    5:20   0.00   24.8    50    1.8   333     5.2   868.8    0.00 
  57    5:30   0.00   24.2    50    2.7    89     5.8   868.9    0.00 
  57    5:40   0.00   23.9    51    1.1   173     3.1   869.0    0.00 
  57    5:50   0.00   23.3    52    1.3   199     3.5   869.0    0.00 
  57    6:00   0.00   23.1    53    2.2   194     4.0   868.8    0.00 
  57    6:10   0.00   23.8    52    3.3   189     6.6   869.0    0.00 
  57    6:20   0.00   23.3    53    2.6   162     5.0   869.0    0.00 
  57    6:30   0.00   24.2    52    3.0   149     4.5   869.1    0.00 
  57    6:40   0.01   26.2    49    3.3   192     4.9   869.1    0.00 
  57    6:50   0.02   26.9    48    2.7   169     4.4   869.0    0.00 
  57    7:00   0.04   27.1    48    1.2   154     2.4   869.1    0.00 
  57    7:10   0.07   28.6    47    1.3   237     3.0   869.1    0.00 
  57    7:20   0.09   29.7    46    1.6   154     4.5   869.1    0.00 
  57    7:30   0.11   31.1    42    2.6   108     5.6   869.2    0.00 
  57    7:40   0.14   32.8    40    3.5   127     5.0   869.4    0.00 
  57    7:50   0.17   36.0    36    2.2   180     4.6   869.6    0.00 
  57    8:00   0.20   37.4    34    1.4   174     4.6   869.9    0.00 
  57    8:10   0.23   39.9    31    0.8   262     1.8   870.1    0.00 
  57    8:20   0.27   41.8    31    1.7   218     3.4   870.3    0.00 
  57    8:30   0.16   43.5    36    5.1   285    13.5   870.2    0.00 
  57    8:40   0.33   45.8    41   16.2     4    22.1   870.4    0.00 
  57    8:50   0.39   46.3    40   17.7     4    23.5   870.6    0.00 
  57    9:00   0.41   46.5    40   18.2     3    24.7   870.6    0.00 
  57    9:10   0.44   46.6    39   18.1   357    23.8   870.6    0.00 
  57    9:20   0.47   47.0    38   16.5     7    22.2   870.6    0.00 
  57    9:30   0.49   47.8    37   14.8     4    20.5   870.5    0.00 
  57    9:40   0.51   48.5    35   13.3   353    18.3   870.4    0.00 
  57    9:50   0.52   48.1    37   13.9    14    21.0   870.5    0.00 
  57   10:00   0.56   48.3    36   13.6     7    18.0   870.4    0.00 
  57   10:10   0.51   48.4    36   10.4     3    17.9   870.4    0.00 
  57   10:20   0.29   47.8    37    7.2    31    12.6   870.6    0.00 
  57   10:30   0.42   46.9    38    8.0    59    13.0   870.7    0.00 
  57   10:40   0.68   48.0    36    8.5    66    15.9   870.7    0.00 
  57   10:50   0.75   49.0    34    8.2    66    15.7   870.6    0.00 
  57   11:00   0.74   48.8    35    8.8    25    14.5   870.7    0.00 
  57   11:10   0.62   48.5    35    9.8    34    15.4   870.5    0.00 
  57   11:20   0.61   48.4    36    9.6    35    15.5   870.3    0.00 
  57   11:30   0.72   50.0    34   12.2    37    16.8   869.9    0.00 
  57   11:40   0.73   50.2    34   11.7    23    17.5   869.7    0.00 
  57   11:50   0.74   50.1    34   11.3    20    17.0   869.7    0.00 
  57   12:00   0.74   50.5    34    8.3    12    14.2   869.6    0.00 
  57   12:10   0.75   50.9    33    9.5    19    14.8   869.5    0.00 
  57   12:20   0.75   51.1    33    9.3     7    16.8   869.2    0.00 
  57   12:30   0.75   51.7    32    6.0   347    14.8   869.1    0.00 
  57   12:40   0.75   51.3    32    5.6    31    13.7   868.8    0.00 
  57   12:50   0.74   51.3    33    7.4   358    12.2   868.5    0.00 
  57   13:00   0.74   51.2    33    6.0    14    15.6   868.2    0.00 
  57   13:10   0.74   52.3    32    5.0     4    12.5   868.2    0.00 
  57   13:20   0.73   52.8    31    7.1   353    11.1   868.1    0.00 
  57   13:30   0.72   52.6    31    9.9     7    14.7   868.0    0.00 
  57   13:40   0.70   52.8    31    9.3    14    14.3   867.9    0.00 
  57   13:50   0.69   52.8    31    9.2     3    16.7   867.7    0.00 
  57   14:00   0.68   52.4    31    7.4   337    14.9   867.4    0.00 
  57   14:10   0.66   53.0    30    7.8    18    14.9   867.1    0.00 
  57   14:20   0.64   52.5    30    6.6     5    14.8   867.0    0.00 
  57   14:30   0.62   53.2    29    8.0     2    14.4   867.0    0.00 
  57   14:40   0.59   53.1    28   10.3    20    17.5   867.0    0.00 
  57   14:50   0.57   52.9    28    9.1    33    16.1   866.9    0.00 
  57   15:00   0.54   52.9    28    8.8    41    15.9   866.7    0.00 
  57   15:10   0.52   53.0    28    8.5    43    14.8   866.6    0.00 
  57   15:20   0.49   53.0    27    8.0    46    12.3   866.4    0.00 
  57   15:30   0.46   53.1    27    8.2    34    13.3   866.4    0.00 
  57   15:40   0.43   53.1    27    7.9    55    11.9   866.3    0.00 

Return to Mason Valley Wildlife Refuge graphs page.


Western Regional Climate Center,wrcc@dri.edu